Redwood City, CA (94064)

06:00 PM PST die 21o December, anno 2014 (GMT -0800)
Sterling Heights | Change Station
CLOSE
Current Station
Personal Weather Stations
Location: Redwood City, CA
Elevation: 134 ft
Nearby Weather Stations
Active Advisory: Coastal Flood Advisory Active Notice: Public Information Statement

Elev 134 ft 37.46 °N, 122.25 °W | Updated 15 seconds ago

Aequaliter Nubila
Aequaliter Nubila
59.2 °F
Feels Like 59.2 °F
N
0.0
Ventus Variabilis Ventus from Magis Auster quam Eurus
Gusts 0.0 mph

Hodie
High -- | Low -- °F
--% Chance of Precip.
Yesterday
High -- | Low -- °F
Precip. -- in
7:19 AM 4:54 PM
New, 0% visible
Pressio 30.29 in
Visibilitas 10.0 milia passuum
Clouds Few 900 ft
Few 1300 ft
Frigus in quo Ros apparet 56 °F
Umor 91%
Rainfall 0.00 in
Snow Depth Not available.
UV 0 out of 12
Pollen 3.40 out of 12
Air Quality Not available.
Flu Activity Not available.
METAR KSQL 220150Z 30007KT 10SM FEW009 FEW013 15/14 A3029

More Conditions Fewer Conditions

Pressio 30.29 in
Visibilitas 10.0 milia passuum
Clouds Few 900 ft
Few 1300 ft
Frigus in quo Ros apparet 56 °F
Umor 91%
Rainfall 0.00 in
Snow Depth Not available.
UV 0 out of 12
Pollen 3.40 out of 12
Air Quality Not available.
Flu Activity Not available.
METAR KSQL 220150Z 30007KT 10SM FEW009 FEW013 15/14 A3029

More Conditions Fewer Conditions

10-Day Weather Forecast

Almanac

Astronomy

Dec. 21, 2014 Rise Set
Actual Time
Civil Twilight
Nautical Twilight
Astronomical Twilight
Moon
Length Of Visible Light
Length of Day
Tomorrow will be .
, % of the Moon is Illuminated

Today's Extremes

State Highs State Lows

Community

WunderPhotos

Upload Photos

1,779,520 photos uploaded!

WunderBlogs® & News

Nearby

Air Quality

  Air Quality AQ Index Pollutant
Not available.

Snow Depth

Station Depth Elevation

Earthquake Activity

City Distance Mag. Time & Date
Minimum magnitude displayed is 2.5.

Coastal Water Temperatures

Locus Calor

Nearby Weather Stations